createdAt,value
2018-05-26T00:00:29.008Z,85.27
2018-05-26T00:03:05.756Z,85.29
2018-05-26T00:05:33.447Z,85.32
2018-05-26T00:08:01.061Z,85.32
2018-05-26T00:10:28.603Z,85.32
2018-05-26T00:12:56.188Z,85.32
2018-05-26T00:15:23.931Z,85.34
2018-05-26T00:17:52.003Z,85.33
2018-05-26T00:20:20.587Z,85.33
2018-05-26T00:22:54.579Z,85.35
2018-05-26T00:25:22.221Z,85.36
2018-05-26T00:27:49.968Z,85.36
2018-05-26T00:30:17.527Z,85.38
2018-05-26T00:32:45.208Z,85.36
2018-05-26T00:35:17.168Z,85.34
2018-05-26T00:37:45.610Z,85.32
2018-05-26T00:40:13.367Z,85.32
2018-05-26T00:42:40.889Z,85.32
2018-05-26T00:45:08.437Z,85.31
2018-05-26T00:47:35.971Z,85.27
2018-05-26T00:50:03.621Z,85.24
2018-05-26T00:52:31.337Z,85.20
2018-05-26T00:54:59.520Z,85.17
2018-05-26T00:57:27.277Z,85.13
2018-05-26T00:59:54.827Z,85.06
2018-05-26T01:02:22.388Z,85.00
2018-05-26T01:04:49.936Z,84.93
2018-05-26T01:07:17.547Z,84.89
2018-05-26T01:09:45.516Z,84.87
2018-05-26T01:12:13.160Z,84.85
2018-05-26T01:14:41.008Z,84.80
2018-05-26T01:17:08.544Z,84.75
2018-05-26T01:19:36.148Z,84.76
2018-05-26T01:22:03.668Z,84.77
2018-05-26T01:24:31.230Z,84.76
2018-05-26T01:26:58.838Z,84.77
2018-05-26T01:29:26.502Z,84.79
2018-05-26T01:31:54.193Z,84.81
2018-05-26T01:34:21.775Z,84.82
2018-05-26T01:36:49.367Z,84.87
2018-05-26T01:39:16.923Z,84.97
2018-05-26T01:41:44.484Z,84.97
2018-05-26T01:44:12.134Z,84.97
2018-05-26T01:46:39.933Z,84.94
2018-05-26T01:49:07.907Z,84.84
2018-05-26T01:51:35.443Z,84.77
2018-05-26T01:54:02.981Z,84.77
2018-05-26T01:56:30.527Z,84.71
2018-05-26T01:58:58.423Z,84.70
2018-05-26T02:01:26.076Z,84.67
2018-05-26T02:03:53.770Z,84.64
2018-05-26T02:06:21.429Z,84.62
2018-05-26T02:08:48.953Z,84.62
2018-05-26T02:11:16.485Z,84.61
2018-05-26T02:13:44.005Z,84.61
2018-05-26T02:16:11.783Z,84.64
2018-05-26T02:18:39.774Z,84.67
2018-05-26T02:21:08.350Z,84.64
2018-05-26T02:23:36.075Z,84.61
2018-05-26T02:26:03.630Z,84.61
2018-05-26T02:28:31.170Z,84.66
2018-05-26T02:30:59.555Z,84.69
2018-05-26T02:33:27.196Z,84.72
2018-05-26T02:35:54.853Z,84.83
2018-05-26T02:38:22.477Z,84.87
2018-05-26T02:40:50.049Z,84.89
2018-05-26T02:43:17.858Z,84.86
2018-05-26T02:45:45.360Z,84.83
2018-05-26T02:48:12.878Z,84.81
2018-05-26T02:50:40.567Z,84.81
2018-05-26T02:53:09.267Z,84.92
2018-05-26T02:55:37.513Z,85.00
2018-05-26T02:58:06.011Z,85.02
2018-05-26T03:00:33.688Z,85.03
2018-05-26T03:03:01.231Z,85.05
2018-05-26T03:05:34.483Z,85.04
2018-05-26T03:08:07.577Z,85.06
2018-05-26T03:10:40.781Z,85.08
2018-05-26T03:13:16.064Z,85.08
2018-05-26T03:15:54.769Z,85.06
2018-05-26T03:18:22.339Z,85.06
2018-05-26T03:20:49.926Z,85.07
2018-05-26T03:23:17.454Z,85.07
2018-05-26T03:25:45.012Z,85.08
2018-05-26T03:28:12.640Z,85.08
2018-05-26T03:30:40.274Z,85.11
2018-05-26T03:33:07.960Z,85.16
2018-05-26T03:35:35.508Z,85.19
2018-05-26T03:38:03.040Z,85.31
2018-05-26T03:40:30.568Z,85.40
2018-05-26T03:42:58.131Z,85.50
2018-05-26T03:45:27.572Z,85.62
2018-05-26T03:47:55.248Z,85.75
2018-05-26T03:50:23.000Z,85.84
2018-05-26T03:52:50.663Z,85.94
2018-05-26T03:55:38.790Z,86.07
2018-05-26T03:58:18.115Z,86.14
2018-05-26T04:00:45.731Z,86.19
2018-05-26T04:03:36.642Z,86.28
2018-05-26T04:06:04.281Z,86.32
2018-05-26T04:08:32.078Z,86.39
2018-05-26T04:10:59.645Z,86.44
2018-05-26T04:13:27.132Z,86.49
2018-05-26T04:15:54.694Z,86.52
2018-05-26T04:18:22.414Z,86.56
2018-05-26T04:20:50.100Z,86.61
2018-05-26T04:23:17.741Z,86.65
2018-05-26T04:25:46.952Z,86.67
2018-05-26T04:28:14.606Z,86.67
2018-05-26T04:30:42.132Z,86.72
2018-05-26T04:33:09.723Z,86.76
2018-05-26T04:35:37.368Z,86.81
2018-05-26T04:38:06.852Z,86.83
2018-05-26T04:40:36.280Z,86.85
2018-05-26T04:43:05.067Z,86.93
2018-05-26T04:45:32.611Z,87.02
2018-05-26T04:48:00.187Z,87.11
2018-05-26T04:50:27.745Z,87.19
2018-05-26T04:52:55.405Z,87.24
2018-05-26T04:55:23.844Z,87.32
2018-05-26T04:57:51.560Z,87.37
2018-05-26T05:00:22.033Z,87.40
2018-05-26T05:02:49.616Z,87.42
2018-05-26T05:05:17.188Z,87.42
2018-05-26T05:07:44.730Z,87.40
2018-05-26T05:10:12.491Z,87.37
2018-05-26T05:12:40.294Z,87.31
2018-05-26T05:15:08.671Z,87.26
2018-05-26T05:17:36.726Z,87.21
2018-05-26T05:20:04.300Z,87.14
2018-05-26T05:22:31.875Z,87.06
2018-05-26T05:24:59.455Z,86.97
2018-05-26T05:27:34.840Z,86.92
2018-05-26T05:30:09.212Z,86.87
2018-05-26T05:32:41.246Z,86.83
2018-05-26T05:35:09.096Z,86.83
2018-05-26T05:37:36.843Z,86.81
2018-05-26T05:40:04.376Z,86.79
2018-05-26T05:42:31.904Z,86.72
2018-05-26T05:45:00.757Z,86.71
2018-05-26T05:47:29.276Z,86.68
2018-05-26T05:49:57.138Z,86.62
2018-05-26T05:52:28.279Z,86.52
2018-05-26T05:54:55.882Z,86.38
2018-05-26T05:57:23.433Z,86.28
2018-05-26T05:59:50.979Z,86.14
2018-05-26T06:02:20.583Z,86.03
2018-05-26T06:04:49.685Z,85.95
2018-05-26T06:07:18.159Z,85.87
2018-05-26T06:09:46.962Z,85.83
2018-05-26T06:12:14.634Z,85.78
2018-05-26T06:14:42.176Z,85.75
2018-05-26T06:17:09.735Z,85.74
2018-05-26T06:19:37.372Z,85.72
2018-05-26T06:22:05.875Z,85.74
2018-05-26T06:24:34.264Z,85.76
2018-05-26T06:27:01.972Z,85.83
2018-05-26T06:29:29.567Z,85.82
2018-05-26T06:31:57.102Z,85.84
2018-05-26T06:34:24.624Z,85.86
2018-05-26T06:36:53.235Z,85.87
2018-05-26T06:39:21.899Z,85.89
2018-05-26T06:41:51.168Z,85.80
2018-05-26T06:44:19.437Z,85.75
2018-05-26T06:46:46.989Z,85.68
2018-05-26T06:49:14.571Z,85.57
2018-05-26T06:51:42.067Z,85.43
2018-05-26T06:54:09.820Z,85.38
2018-05-26T06:56:41.185Z,85.33
2018-05-26T06:59:11.917Z,85.25
2018-05-26T07:01:40.649Z,85.10
2018-05-26T07:04:08.199Z,84.82
2018-05-26T07:06:35.718Z,84.62
2018-05-26T07:09:03.322Z,84.49
2018-05-26T07:11:30.956Z,84.42
2018-05-26T07:13:58.583Z,84.39
2018-05-26T07:16:26.265Z,84.30
2018-05-26T07:18:54.780Z,84.16
2018-05-26T07:21:22.356Z,84.06
2018-05-26T07:23:51.017Z,84.01
2018-05-26T07:29:11.820Z,82.93
2018-05-26T08:14:22.567Z,79.12
2018-05-26T08:16:50.126Z,78.87
2018-05-26T08:19:17.631Z,78.61
2018-05-26T08:21:56.834Z,78.18
2018-05-26T08:24:30.897Z,77.81
2018-05-26T08:27:10.681Z,77.45
2018-05-26T08:29:42.056Z,77.05
2018-05-26T08:32:09.599Z,76.67
2018-05-26T08:34:37.647Z,76.40
2018-05-26T08:37:05.162Z,75.92
2018-05-26T08:39:34.137Z,75.72
2018-05-26T08:42:02.625Z,75.49
2018-05-26T08:44:33.559Z,75.22
2018-05-26T08:47:01.176Z,75.21
2018-05-26T08:49:28.726Z,75.18
2018-05-26T08:51:56.287Z,74.89
2018-05-26T08:54:23.838Z,74.85
2018-05-26T08:56:54.088Z,74.88
2018-05-26T08:59:21.663Z,74.86
2018-05-26T09:01:49.325Z,74.75
2018-05-26T09:04:17.781Z,74.77
2018-05-26T09:06:45.327Z,74.81
2018-05-26T09:09:12.868Z,74.79
2018-05-26T09:11:41.438Z,74.72
2018-05-26T09:14:09.856Z,74.63
2018-05-26T09:17:32.580Z,74.52
2018-05-26T09:20:15.069Z,74.28
2018-05-26T09:22:42.624Z,74.02
2018-05-26T09:25:10.298Z,73.70
2018-05-26T09:27:37.728Z,73.54
2018-05-26T09:30:05.406Z,73.42
2018-05-26T09:32:33.109Z,73.17
2018-05-26T09:35:00.755Z,72.73
2018-05-26T09:40:01.881Z,71.98
2018-05-26T09:42:29.454Z,71.70
2018-05-26T09:44:57.032Z,71.36
2018-05-26T09:47:24.536Z,71.13
2018-05-26T09:49:52.236Z,70.99
2018-05-26T09:52:20.987Z,70.76
2018-05-26T09:54:49.914Z,70.69
2018-05-26T09:57:25.767Z,70.61
2018-05-26T09:59:53.359Z,70.44
2018-05-26T10:02:20.911Z,70.28
2018-05-26T10:04:48.617Z,69.98
2018-05-26T10:07:16.451Z,69.86
2018-05-26T10:09:45.629Z,69.57
2018-05-26T10:12:13.411Z,69.42
2018-05-26T10:14:41.007Z,69.34
2018-05-26T10:17:08.611Z,69.27
2018-05-26T10:19:36.156Z,69.12
2018-05-26T10:22:03.954Z,69.03
2018-05-26T10:24:32.895Z,68.64
2018-05-26T10:27:00.574Z,68.33
2018-05-26T10:29:28.281Z,68.33
2018-05-26T10:31:56.724Z,68.33
2018-05-26T10:34:24.381Z,68.43
2018-05-26T10:36:51.870Z,68.56
2018-05-26T10:39:19.358Z,68.59
2018-05-26T10:41:49.883Z,68.56
2018-05-26T10:44:17.528Z,68.56
2018-05-26T10:51:17.156Z,68.85
2018-05-26T10:53:49.053Z,68.86
2018-05-26T10:56:19.379Z,69.00
2018-05-26T11:01:22.877Z,69.20
2018-05-26T11:03:51.343Z,69.45
2018-05-26T11:06:18.868Z,69.61
2018-05-26T11:08:47.503Z,69.77
2018-05-26T11:11:15.795Z,69.95
2018-05-26T11:13:43.434Z,70.23
2018-05-26T11:16:13.427Z,70.55
2018-05-26T11:18:45.477Z,70.77
2018-05-26T11:21:13.109Z,70.89
2018-05-26T11:26:51.714Z,71.57
2018-05-26T11:29:26.331Z,72.17
2018-05-26T11:41:04.641Z,74.82
2018-05-26T11:43:34.542Z,75.34
2018-05-26T12:00:15.268Z,77.13
2018-05-26T12:02:44.091Z,77.52
2018-05-26T12:14:45.273Z,78.84
2018-05-26T12:17:18.910Z,79.19
2018-05-26T12:20:07.812Z,79.47
2018-05-26T13:23:54.322Z,76.39
2018-05-26T13:26:25.615Z,75.86
2018-05-26T13:28:59.302Z,75.12
2018-05-26T13:40:36.150Z,72.48
2018-05-26T13:45:42.830Z,71.03
2018-05-26T13:57:19.901Z,69.25
2018-05-26T13:59:48.292Z,69.07
2018-05-26T14:02:16.495Z,69.07
2018-05-26T14:14:11.193Z,68.94
2018-05-26T14:16:40.678Z,68.79
2018-05-26T14:19:09.768Z,68.77
2018-05-26T14:27:38.422Z,68.62
2018-05-26T14:30:09.048Z,68.48
2018-05-26T14:32:36.532Z,68.63
2018-05-26T14:35:04.055Z,68.81
2018-05-26T14:37:31.565Z,68.63
2018-05-26T14:39:59.391Z,68.64
2018-05-26T14:42:28.620Z,68.78
2018-05-26T14:44:56.379Z,68.74
2018-05-26T14:47:24.482Z,68.81
2018-05-26T14:49:52.092Z,68.98
2018-05-26T14:52:19.563Z,69.01
2018-05-26T14:54:47.072Z,69.11
2018-05-26T14:57:21.225Z,69.18
2018-05-26T14:59:50.422Z,69.24
2018-05-26T15:02:21.100Z,69.23
2018-05-26T15:04:49.608Z,69.03
2018-05-26T15:07:18.322Z,68.80
2018-05-26T15:09:45.805Z,68.55
2018-05-26T15:12:14.246Z,68.11
2018-05-26T15:14:42.603Z,67.63
2018-05-26T15:23:15.798Z,65.23
2018-05-26T15:25:46.858Z,64.48
2018-05-26T15:28:19.597Z,63.50
2018-05-26T15:30:51.487Z,62.67
2018-05-26T15:42:31.937Z,60.76
2018-05-26T15:45:01.184Z,60.54
2018-05-26T15:47:44.532Z,60.64
2018-05-26T15:58:57.073Z,60.35
2018-05-26T16:01:27.000Z,60.69
2018-05-26T16:03:56.236Z,61.90
2018-05-26T16:09:08.789Z,64.02
2018-05-26T16:11:37.597Z,65.04
2018-05-26T16:14:06.180Z,65.94
2018-05-26T16:16:35.756Z,66.80
2018-05-26T16:19:13.456Z,67.28
2018-05-26T16:21:41.151Z,67.98
2018-05-26T16:24:18.275Z,68.47
2018-05-26T16:26:46.897Z,68.87
2018-05-26T16:29:17.197Z,69.31
2018-05-26T16:31:48.429Z,69.79
2018-05-26T16:34:15.977Z,70.08
2018-05-26T16:36:43.712Z,70.50
2018-05-26T16:39:11.560Z,70.86
2018-05-26T16:41:41.622Z,71.15
2018-05-26T16:50:14.372Z,71.97
2018-05-26T16:52:42.096Z,72.21
2018-05-26T16:55:09.920Z,72.46
2018-05-26T17:07:05.273Z,73.92
2018-05-26T17:09:33.057Z,74.29
2018-05-26T17:12:00.635Z,74.60
2018-05-26T17:23:30.304Z,75.86
2018-05-26T17:25:57.963Z,76.03
2018-05-26T17:28:26.077Z,76.24
2018-05-26T17:30:57.171Z,76.37
2018-05-26T17:42:34.108Z,76.76
2018-05-26T17:45:01.815Z,76.70
2018-05-26T17:47:29.860Z,76.51
2018-05-26T17:58:28.105Z,73.79
2018-05-26T18:00:55.691Z,73.09
2018-05-26T18:03:24.096Z,72.36
2018-05-26T18:05:51.727Z,71.72
2018-05-26T18:16:49.649Z,68.91
2018-05-26T18:19:18.072Z,68.52
2018-05-26T18:21:46.376Z,67.77
2018-05-26T18:33:13.222Z,67.05
2018-05-26T18:35:40.807Z,66.95
2018-05-26T18:38:08.471Z,66.82
2018-05-26T18:49:42.287Z,66.68
2018-05-26T18:52:10.125Z,66.62
2018-05-26T18:54:38.476Z,66.71
2018-05-26T18:57:06.105Z,66.69
2018-05-26T19:08:44.172Z,67.63
2018-05-26T19:11:12.033Z,67.87
2018-05-26T19:25:49.463Z,69.33
2018-05-26T19:28:17.375Z,69.61
2018-05-26T19:30:45.204Z,69.82
2018-05-26T19:42:20.954Z,70.85
2018-05-26T19:44:48.611Z,71.08
2018-05-26T19:47:16.236Z,71.25
2018-05-26T19:49:45.886Z,71.48
2018-05-26T20:01:22.186Z,72.55
2018-05-26T20:03:49.826Z,72.72
2018-05-26T20:06:17.408Z,72.88
2018-05-26T20:17:53.920Z,73.47
2018-05-26T20:20:21.795Z,73.62
2018-05-26T20:23:11.423Z,73.70
2018-05-26T20:34:47.936Z,74.33
2018-05-26T20:37:15.580Z,74.55
2018-05-26T20:39:43.364Z,74.68
2018-05-26T20:51:19.190Z,75.33
2018-05-26T20:53:46.826Z,75.86
2018-05-26T20:56:14.391Z,76.30
2018-05-26T21:07:16.825Z,78.56
2018-05-26T21:09:44.390Z,78.98
2018-05-26T21:12:11.918Z,79.35
2018-05-26T21:14:39.463Z,79.67
2018-05-26T21:17:07.136Z,80.23
2018-05-26T21:19:34.836Z,80.77
2018-05-26T21:24:52.158Z,82.09
2018-05-26T21:27:20.031Z,82.56
2018-05-26T21:29:47.578Z,83.06
2018-05-26T21:32:15.464Z,83.41
2018-05-26T21:34:43.109Z,83.70
2018-05-26T21:37:13.481Z,83.99
2018-05-26T21:39:42.107Z,84.24
2018-05-26T21:42:10.052Z,84.62
2018-05-26T21:44:37.675Z,84.78
2018-05-26T21:47:05.267Z,84.84
2018-05-26T21:49:33.711Z,84.94
2018-05-26T21:52:06.455Z,85.00
2018-05-26T22:00:02.473Z,85.20
2018-05-26T22:02:31.080Z,85.33
2018-05-26T22:04:58.623Z,85.40
2018-05-26T22:07:26.363Z,85.42
2018-05-26T22:18:02.267Z,85.18
2018-05-26T22:20:29.865Z,85.08
2018-05-26T22:22:57.622Z,84.97
2018-05-26T22:25:32.634Z,84.85
2018-05-26T22:28:04.452Z,84.70
2018-05-26T22:36:04.685Z,84.28
2018-05-26T22:41:04.875Z,84.05
2018-05-26T22:43:41.594Z,83.95
2018-05-26T22:54:01.238Z,83.45
2018-05-26T22:56:28.872Z,83.34
2018-05-26T22:58:56.459Z,83.18
2018-05-26T23:01:28.819Z,83.01
2018-05-26T23:04:01.541Z,82.88
2018-05-26T23:06:34.231Z,82.76
2018-05-26T23:09:04.655Z,82.63
2018-05-26T23:11:32.223Z,82.54
2018-05-26T23:13:59.788Z,82.45
2018-05-26T23:16:27.581Z,82.38
2018-05-26T23:18:57.427Z,82.31
2018-05-26T23:21:26.141Z,82.27
2018-05-26T23:24:04.836Z,82.21
2018-05-26T23:29:07.991Z,82.10
2018-05-26T23:31:35.444Z,82.06
2018-05-26T23:34:02.988Z,82.03
2018-05-26T23:36:32.458Z,81.99
2018-05-26T23:39:04.897Z,81.94
2018-05-26T23:41:37.446Z,81.96
2018-05-26T23:44:06.648Z,81.93
2018-05-26T23:46:37.412Z,82.00
2018-05-26T23:49:04.995Z,82.15
2018-05-26T23:51:32.551Z,82.29
2018-05-26T23:54:02.612Z,82.43
2018-05-26T23:56:30.271Z,82.55
2018-05-26T23:58:58.044Z,82.67
